sensor_id;sensor_type;location;lat;lon;timestamp;P1;durP1;ratioP1;P2;durP2;ratioP2
18228;SDS011;9239;50.932;3.142;2024-03-07T00:00:08;26.23;;;21.93;;
18228;SDS011;9239;50.932;3.142;2024-03-07T00:02:42;24.13;;;21.53;;
18228;SDS011;9239;50.932;3.142;2024-03-07T00:05:09;27.17;;;24.27;;
18228;SDS011;9239;50.932;3.142;2024-03-07T00:07:36;26.30;;;22.47;;
18228;SDS011;9239;50.932;3.142;2024-03-07T00:10:05;25.97;;;23.23;;
18228;SDS011;9239;50.932;3.142;2024-03-07T00:12:33;25.60;;;22.73;;
18228;SDS011;9239;50.932;3.142;2024-03-07T00:15:00;28.27;;;22.00;;
18228;SDS011;9239;50.932;3.142;2024-03-07T00:17:27;26.13;;;22.53;;
18228;SDS011;9239;50.932;3.142;2024-03-07T00:19:54;27.20;;;22.57;;
18228;SDS011;9239;50.932;3.142;2024-03-07T00:22:21;25.10;;;22.40;;
18228;SDS011;9239;50.932;3.142;2024-03-07T00:24:49;32.40;;;25.73;;
18228;SDS011;9239;50.932;3.142;2024-03-07T00:27:17;28.20;;;23.67;;
18228;SDS011;9239;50.932;3.142;2024-03-07T00:29:45;24.23;;;21.70;;
18228;SDS011;9239;50.932;3.142;2024-03-07T00:32:18;26.07;;;22.83;;
18228;SDS011;9239;50.932;3.142;2024-03-07T00:34:45;29.03;;;23.53;;
18228;SDS011;9239;50.932;3.142;2024-03-07T00:37:12;26.73;;;23.67;;
18228;SDS011;9239;50.932;3.142;2024-03-07T00:39:38;28.93;;;23.90;;
18228;SDS011;9239;50.932;3.142;2024-03-07T00:42:05;25.57;;;22.50;;
18228;SDS011;9239;50.932;3.142;2024-03-07T00:44:33;30.70;;;22.53;;
18228;SDS011;9239;50.932;3.142;2024-03-07T00:47:00;25.73;;;22.30;;
18228;SDS011;9239;50.932;3.142;2024-03-07T00:49:28;27.07;;;23.13;;
18228;SDS011;9239;50.932;3.142;2024-03-07T00:51:55;27.23;;;22.80;;
18228;SDS011;9239;50.932;3.142;2024-03-07T00:54:22;29.20;;;24.83;;
18228;SDS011;9239;50.932;3.142;2024-03-07T00:56:49;29.17;;;24.60;;
18228;SDS011;9239;50.932;3.142;2024-03-07T00:59:16;32.67;;;24.30;;
18228;SDS011;9239;50.932;3.142;2024-03-07T01:01:44;26.13;;;22.77;;
18228;SDS011;9239;50.932;3.142;2024-03-07T01:04:11;28.93;;;23.77;;
18228;SDS011;9239;50.932;3.142;2024-03-07T01:06:38;28.03;;;23.53;;
18228;SDS011;9239;50.932;3.142;2024-03-07T01:09:05;26.97;;;24.13;;
18228;SDS011;9239;50.932;3.142;2024-03-07T01:11:39;27.60;;;24.33;;
18228;SDS011;9239;50.932;3.142;2024-03-07T01:14:06;25.97;;;22.40;;
18228;SDS011;9239;50.932;3.142;2024-03-07T01:16:33;29.63;;;24.80;;
18228;SDS011;9239;50.932;3.142;2024-03-07T01:19:02;29.07;;;23.97;;
18228;SDS011;9239;50.932;3.142;2024-03-07T01:21:30;35.40;;;26.53;;
18228;SDS011;9239;50.932;3.142;2024-03-07T01:23:58;32.67;;;26.97;;
18228;SDS011;9239;50.932;3.142;2024-03-07T01:26:25;36.23;;;25.87;;
18228;SDS011;9239;50.932;3.142;2024-03-07T01:28:52;33.03;;;28.43;;
18228;SDS011;9239;50.932;3.142;2024-03-07T01:31:20;36.83;;;27.53;;
18228;SDS011;9239;50.932;3.142;2024-03-07T01:33:47;37.03;;;28.17;;
18228;SDS011;9239;50.932;3.142;2024-03-07T01:36:15;43.10;;;31.37;;
18228;SDS011;9239;50.932;3.142;2024-03-07T01:38:42;38.77;;;30.60;;
18228;SDS011;9239;50.932;3.142;2024-03-07T01:41:09;41.87;;;32.20;;
18228;SDS011;9239;50.932;3.142;2024-03-07T01:43:36;49.03;;;33.63;;
18228;SDS011;9239;50.932;3.142;2024-03-07T01:46:03;44.00;;;32.03;;
18228;SDS011;9239;50.932;3.142;2024-03-07T01:48:31;45.80;;;31.43;;
18228;SDS011;9239;50.932;3.142;2024-03-07T01:50:58;43.90;;;32.57;;
18228;SDS011;9239;50.932;3.142;2024-03-07T01:53:27;41.37;;;31.10;;
18228;SDS011;9239;50.932;3.142;2024-03-07T01:55:55;40.57;;;30.53;;
18228;SDS011;9239;50.932;3.142;2024-03-07T01:58:23;39.47;;;28.90;;
18228;SDS011;9239;50.932;3.142;2024-03-07T02:00:50;37.57;;;29.53;;
18228;SDS011;9239;50.932;3.142;2024-03-07T02:03:17;39.23;;;29.43;;
18228;SDS011;9239;50.932;3.142;2024-03-07T02:05:44;37.93;;;29.10;;
18228;SDS011;9239;50.932;3.142;2024-03-07T02:08:11;39.07;;;29.00;;
18228;SDS011;9239;50.932;3.142;2024-03-07T02:10:41;38.97;;;28.80;;
18228;SDS011;9239;50.932;3.142;2024-03-07T02:13:08;37.53;;;31.13;;
18228;SDS011;9239;50.932;3.142;2024-03-07T02:15:35;42.43;;;30.47;;
18228;SDS011;9239;50.932;3.142;2024-03-07T02:18:02;40.13;;;30.33;;
18228;SDS011;9239;50.932;3.142;2024-03-07T02:20:29;41.77;;;30.93;;
18228;SDS011;9239;50.932;3.142;2024-03-07T02:22:57;39.13;;;29.93;;
18228;SDS011;9239;50.932;3.142;2024-03-07T02:25:24;41.47;;;30.40;;
18228;SDS011;9239;50.932;3.142;2024-03-07T02:27:52;40.17;;;29.33;;
18228;SDS011;9239;50.932;3.142;2024-03-07T02:30:19;41.87;;;30.07;;
18228;SDS011;9239;50.932;3.142;2024-03-07T02:32:46;41.63;;;30.27;;
18228;SDS011;9239;50.932;3.142;2024-03-07T02:35:17;42.57;;;30.90;;
18228;SDS011;9239;50.932;3.142;2024-03-07T02:37:45;40.40;;;31.70;;
18228;SDS011;9239;50.932;3.142;2024-03-07T02:40:14;46.07;;;33.80;;
18228;SDS011;9239;50.932;3.142;2024-03-07T02:42:41;42.87;;;32.07;;
18228;SDS011;9239;50.932;3.142;2024-03-07T02:45:09;49.70;;;35.43;;
18228;SDS011;9239;50.932;3.142;2024-03-07T02:47:40;47.97;;;33.27;;
18228;SDS011;9239;50.932;3.142;2024-03-07T02:50:09;46.40;;;34.57;;
18228;SDS011;9239;50.932;3.142;2024-03-07T02:52:36;53.30;;;35.73;;
18228;SDS011;9239;50.932;3.142;2024-03-07T02:55:04;47.27;;;33.70;;
18228;SDS011;9239;50.932;3.142;2024-03-07T02:57:34;49.10;;;34.07;;
18228;SDS011;9239;50.932;3.142;2024-03-07T03:00:02;54.87;;;35.93;;
18228;SDS011;9239;50.932;3.142;2024-03-07T03:02:38;51.03;;;35.67;;
18228;SDS011;9239;50.932;3.142;2024-03-07T03:05:05;48.47;;;35.73;;
18228;SDS011;9239;50.932;3.142;2024-03-07T03:07:34;54.67;;;35.90;;
18228;SDS011;9239;50.932;3.142;2024-03-07T03:10:01;53.53;;;38.07;;
18228;SDS011;9239;50.932;3.142;2024-03-07T03:12:36;55.03;;;36.00;;
18228;SDS011;9239;50.932;3.142;2024-03-07T03:15:04;53.77;;;36.10;;
18228;SDS011;9239;50.932;3.142;2024-03-07T03:17:32;52.83;;;37.93;;
18228;SDS011;9239;50.932;3.142;2024-03-07T03:20:00;56.33;;;37.20;;
18228;SDS011;9239;50.932;3.142;2024-03-07T03:22:28;59.17;;;40.13;;
18228;SDS011;9239;50.932;3.142;2024-03-07T03:24:55;56.53;;;37.70;;
18228;SDS011;9239;50.932;3.142;2024-03-07T03:27:22;54.27;;;37.93;;
18228;SDS011;9239;50.932;3.142;2024-03-07T03:29:50;55.57;;;37.90;;
18228;SDS011;9239;50.932;3.142;2024-03-07T03:32:17;55.03;;;38.07;;
18228;SDS011;9239;50.932;3.142;2024-03-07T03:34:44;59.63;;;40.63;;
18228;SDS011;9239;50.932;3.142;2024-03-07T03:37:11;56.73;;;37.73;;
18228;SDS011;9239;50.932;3.142;2024-03-07T03:39:37;57.60;;;37.70;;
18228;SDS011;9239;50.932;3.142;2024-03-07T03:42:04;56.33;;;38.13;;
18228;SDS011;9239;50.932;3.142;2024-03-07T03:44:32;53.47;;;37.80;;
18228;SDS011;9239;50.932;3.142;2024-03-07T03:47:01;54.47;;;39.20;;
18228;SDS011;9239;50.932;3.142;2024-03-07T03:49:29;55.97;;;39.13;;
18228;SDS011;9239;50.932;3.142;2024-03-07T03:51:56;61.10;;;41.63;;
18228;SDS011;9239;50.932;3.142;2024-03-07T03:54:24;59.63;;;41.27;;
18228;SDS011;9239;50.932;3.142;2024-03-07T03:56:51;56.53;;;39.23;;
18228;SDS011;9239;50.932;3.142;2024-03-07T03:59:18;60.10;;;40.07;;
18228;SDS011;9239;50.932;3.142;2024-03-07T04:01:45;55.07;;;38.33;;
18228;SDS011;9239;50.932;3.142;2024-03-07T04:04:14;58.87;;;39.17;;
18228;SDS011;9239;50.932;3.142;2024-03-07T04:06:41;58.23;;;38.60;;
18228;SDS011;9239;50.932;3.142;2024-03-07T04:09:08;60.53;;;41.07;;
18228;SDS011;9239;50.932;3.142;2024-03-07T04:11:35;55.83;;;40.80;;
18228;SDS011;9239;50.932;3.142;2024-03-07T04:14:03;61.37;;;40.57;;
18228;SDS011;9239;50.932;3.142;2024-03-07T04:16:30;55.37;;;40.67;;
18228;SDS011;9239;50.932;3.142;2024-03-07T04:18:57;59.83;;;40.50;;
18228;SDS011;9239;50.932;3.142;2024-03-07T04:21:25;67.60;;;40.63;;
18228;SDS011;9239;50.932;3.142;2024-03-07T04:23:52;62.23;;;40.37;;
18228;SDS011;9239;50.932;3.142;2024-03-07T04:26:19;56.73;;;39.87;;
18228;SDS011;9239;50.932;3.142;2024-03-07T04:28:45;59.70;;;41.97;;
18228;SDS011;9239;50.932;3.142;2024-03-07T04:31:13;59.20;;;42.60;;
18228;SDS011;9239;50.932;3.142;2024-03-07T04:33:40;62.63;;;42.73;;
18228;SDS011;9239;50.932;3.142;2024-03-07T04:36:07;67.07;;;43.67;;
18228;SDS011;9239;50.932;3.142;2024-03-07T04:38:35;60.93;;;42.43;;
18228;SDS011;9239;50.932;3.142;2024-03-07T04:41:02;68.37;;;43.67;;
18228;SDS011;9239;50.932;3.142;2024-03-07T04:43:30;66.37;;;43.67;;
18228;SDS011;9239;50.932;3.142;2024-03-07T04:45:58;67.53;;;44.83;;
18228;SDS011;9239;50.932;3.142;2024-03-07T04:48:25;65.30;;;44.80;;
18228;SDS011;9239;50.932;3.142;2024-03-07T04:50:52;74.03;;;45.20;;
18228;SDS011;9239;50.932;3.142;2024-03-07T04:53:19;71.13;;;43.80;;
18228;SDS011;9239;50.932;3.142;2024-03-07T04:55:47;70.90;;;45.70;;
18228;SDS011;9239;50.932;3.142;2024-03-07T04:58:14;76.73;;;45.47;;
18228;SDS011;9239;50.932;3.142;2024-03-07T05:00:41;67.00;;;44.50;;
18228;SDS011;9239;50.932;3.142;2024-03-07T05:03:08;71.93;;;45.53;;
18228;SDS011;9239;50.932;3.142;2024-03-07T05:05:36;73.40;;;46.47;;
18228;SDS011;9239;50.932;3.142;2024-03-07T05:08:03;72.17;;;44.63;;
18228;SDS011;9239;50.932;3.142;2024-03-07T05:10:30;71.23;;;44.93;;
18228;SDS011;9239;50.932;3.142;2024-03-07T05:12:58;82.00;;;47.27;;
18228;SDS011;9239;50.932;3.142;2024-03-07T05:15:25;75.17;;;47.03;;
18228;SDS011;9239;50.932;3.142;2024-03-07T05:17:52;78.90;;;47.23;;
18228;SDS011;9239;50.932;3.142;2024-03-07T05:20:21;69.73;;;46.40;;
18228;SDS011;9239;50.932;3.142;2024-03-07T05:22:48;72.83;;;45.17;;
18228;SDS011;9239;50.932;3.142;2024-03-07T05:25:16;77.70;;;46.23;;
18228;SDS011;9239;50.932;3.142;2024-03-07T05:27:43;82.03;;;47.03;;
18228;SDS011;9239;50.932;3.142;2024-03-07T05:30:12;73.37;;;46.37;;
18228;SDS011;9239;50.932;3.142;2024-03-07T05:32:40;76.37;;;46.57;;
18228;SDS011;9239;50.932;3.142;2024-03-07T05:35:07;84.07;;;48.37;;
18228;SDS011;9239;50.932;3.142;2024-03-07T05:37:36;73.63;;;45.20;;
18228;SDS011;9239;50.932;3.142;2024-03-07T05:40:07;79.20;;;47.00;;
18228;SDS011;9239;50.932;3.142;2024-03-07T05:42:34;77.60;;;46.30;;
18228;SDS011;9239;50.932;3.142;2024-03-07T05:45:01;72.67;;;45.77;;
18228;SDS011;9239;50.932;3.142;2024-03-07T05:47:30;79.80;;;49.47;;
18228;SDS011;9239;50.932;3.142;2024-03-07T05:49:56;78.73;;;45.57;;
18228;SDS011;9239;50.932;3.142;2024-03-07T05:52:23;82.73;;;50.47;;
18228;SDS011;9239;50.932;3.142;2024-03-07T05:54:50;79.07;;;47.63;;
18228;SDS011;9239;50.932;3.142;2024-03-07T05:57:17;79.93;;;50.57;;
18228;SDS011;9239;50.932;3.142;2024-03-07T05:59:44;77.60;;;45.80;;
18228;SDS011;9239;50.932;3.142;2024-03-07T06:02:12;83.47;;;49.60;;
18228;SDS011;9239;50.932;3.142;2024-03-07T06:04:41;82.60;;;49.77;;
18228;SDS011;9239;50.932;3.142;2024-03-07T06:07:09;81.80;;;49.87;;
18228;SDS011;9239;50.932;3.142;2024-03-07T06:09:37;83.57;;;49.40;;
18228;SDS011;9239;50.932;3.142;2024-03-07T06:12:04;74.13;;;46.33;;
18228;SDS011;9239;50.932;3.142;2024-03-07T06:14:33;75.43;;;46.97;;
18228;SDS011;9239;50.932;3.142;2024-03-07T06:17:00;80.63;;;48.27;;
18228;SDS011;9239;50.932;3.142;2024-03-07T06:19:28;78.23;;;48.50;;
18228;SDS011;9239;50.932;3.142;2024-03-07T06:21:57;74.87;;;46.83;;
18228;SDS011;9239;50.932;3.142;2024-03-07T06:24:24;84.07;;;48.83;;
18228;SDS011;9239;50.932;3.142;2024-03-07T06:26:55;75.57;;;47.17;;
18228;SDS011;9239;50.932;3.142;2024-03-07T06:29:28;81.20;;;49.60;;
18228;SDS011;9239;50.932;3.142;2024-03-07T06:31:55;84.30;;;49.07;;
18228;SDS011;9239;50.932;3.142;2024-03-07T06:34:23;81.17;;;48.70;;
18228;SDS011;9239;50.932;3.142;2024-03-07T06:36:50;78.90;;;47.57;;
18228;SDS011;9239;50.932;3.142;2024-03-07T06:39:19;80.37;;;48.53;;
18228;SDS011;9239;50.932;3.142;2024-03-07T06:41:47;80.63;;;48.73;;
18228;SDS011;9239;50.932;3.142;2024-03-07T06:44:13;89.17;;;49.37;;
18228;SDS011;9239;50.932;3.142;2024-03-07T06:46:42;81.93;;;46.93;;
18228;SDS011;9239;50.932;3.142;2024-03-07T06:49:10;77.73;;;47.47;;
18228;SDS011;9239;50.932;3.142;2024-03-07T06:51:37;83.13;;;48.70;;
18228;SDS011;9239;50.932;3.142;2024-03-07T06:54:04;80.13;;;48.83;;
18228;SDS011;9239;50.932;3.142;2024-03-07T06:56:33;84.20;;;47.73;;
18228;SDS011;9239;50.932;3.142;2024-03-07T06:59:00;81.47;;;46.63;;
18228;SDS011;9239;50.932;3.142;2024-03-07T07:01:29;82.30;;;50.20;;
18228;SDS011;9239;50.932;3.142;2024-03-07T07:03:56;80.73;;;48.47;;
18228;SDS011;9239;50.932;3.142;2024-03-07T07:06:28;79.70;;;48.87;;
18228;SDS011;9239;50.932;3.142;2024-03-07T07:08:56;83.80;;;49.40;;
18228;SDS011;9239;50.932;3.142;2024-03-07T07:11:23;78.87;;;46.37;;
18228;SDS011;9239;50.932;3.142;2024-03-07T07:13:52;77.80;;;45.47;;
18228;SDS011;9239;50.932;3.142;2024-03-07T07:16:19;87.03;;;45.20;;
18228;SDS011;9239;50.932;3.142;2024-03-07T07:18:45;77.13;;;45.20;;
18228;SDS011;9239;50.932;3.142;2024-03-07T07:21:12;70.83;;;43.43;;
18228;SDS011;9239;50.932;3.142;2024-03-07T07:23:41;81.23;;;49.73;;
18228;SDS011;9239;50.932;3.142;2024-03-07T07:26:08;73.13;;;46.30;;
18228;SDS011;9239;50.932;3.142;2024-03-07T07:28:35;73.00;;;45.63;;
18228;SDS011;9239;50.932;3.142;2024-03-07T07:31:04;75.90;;;47.27;;
18228;SDS011;9239;50.932;3.142;2024-03-07T07:33:31;74.50;;;45.37;;
18228;SDS011;9239;50.932;3.142;2024-03-07T07:35:58;75.20;;;47.93;;
18228;SDS011;9239;50.932;3.142;2024-03-07T07:38:25;72.00;;;44.57;;
18228;SDS011;9239;50.932;3.142;2024-03-07T07:40:52;76.07;;;43.10;;
18228;SDS011;9239;50.932;3.142;2024-03-07T07:43:19;68.57;;;43.10;;
18228;SDS011;9239;50.932;3.142;2024-03-07T07:45:46;68.40;;;43.53;;
18228;SDS011;9239;50.932;3.142;2024-03-07T07:48:14;69.07;;;43.70;;
18228;SDS011;9239;50.932;3.142;2024-03-07T07:50:41;70.07;;;44.13;;
18228;SDS011;9239;50.932;3.142;2024-03-07T07:53:08;69.93;;;43.03;;
18228;SDS011;9239;50.932;3.142;2024-03-07T07:55:35;68.13;;;41.43;;
18228;SDS011;9239;50.932;3.142;2024-03-07T07:58:03;69.03;;;42.70;;
18228;SDS011;9239;50.932;3.142;2024-03-07T08:00:30;69.80;;;43.17;;
18228;SDS011;9239;50.932;3.142;2024-03-07T08:02:58;68.27;;;43.93;;
18228;SDS011;9239;50.932;3.142;2024-03-07T08:05:28;68.63;;;44.60;;
18228;SDS011;9239;50.932;3.142;2024-03-07T08:07:57;71.90;;;44.20;;
18228;SDS011;9239;50.932;3.142;2024-03-07T08:10:26;66.70;;;42.83;;
18228;SDS011;9239;50.932;3.142;2024-03-07T08:12:54;65.73;;;44.47;;
18228;SDS011;9239;50.932;3.142;2024-03-07T08:15:21;69.20;;;44.87;;
18228;SDS011;9239;50.932;3.142;2024-03-07T08:17:48;74.43;;;44.03;;
18228;SDS011;9239;50.932;3.142;2024-03-07T08:20:17;63.20;;;43.73;;
18228;SDS011;9239;50.932;3.142;2024-03-07T08:22:47;70.53;;;44.27;;
18228;SDS011;9239;50.932;3.142;2024-03-07T08:25:16;66.83;;;41.30;;
18228;SDS011;9239;50.932;3.142;2024-03-07T08:27:44;69.83;;;44.90;;
18228;SDS011;9239;50.932;3.142;2024-03-07T08:30:12;68.93;;;41.30;;
18228;SDS011;9239;50.932;3.142;2024-03-07T08:32:41;67.20;;;43.27;;
18228;SDS011;9239;50.932;3.142;2024-03-07T08:35:09;66.20;;;44.43;;
18228;SDS011;9239;50.932;3.142;2024-03-07T08:37:37;59.80;;;40.50;;
18228;SDS011;9239;50.932;3.142;2024-03-07T08:40:07;62.60;;;41.83;;
18228;SDS011;9239;50.932;3.142;2024-03-07T08:42:36;59.87;;;39.93;;
18228;SDS011;9239;50.932;3.142;2024-03-07T08:45:04;64.57;;;42.23;;
18228;SDS011;9239;50.932;3.142;2024-03-07T08:47:31;60.47;;;39.33;;
18228;SDS011;9239;50.932;3.142;2024-03-07T08:49:59;61.57;;;40.43;;
18228;SDS011;9239;50.932;3.142;2024-03-07T08:52:26;62.77;;;38.77;;
18228;SDS011;9239;50.932;3.142;2024-03-07T08:54:53;58.77;;;40.27;;
18228;SDS011;9239;50.932;3.142;2024-03-07T08:57:22;63.47;;;41.33;;
18228;SDS011;9239;50.932;3.142;2024-03-07T08:59:49;56.97;;;39.13;;
18228;SDS011;9239;50.932;3.142;2024-03-07T09:02:15;57.07;;;37.30;;
18228;SDS011;9239;50.932;3.142;2024-03-07T09:04:42;60.70;;;38.77;;
18228;SDS011;9239;50.932;3.142;2024-03-07T09:07:09;55.33;;;38.07;;
18228;SDS011;9239;50.932;3.142;2024-03-07T09:09:36;59.77;;;39.57;;
18228;SDS011;9239;50.932;3.142;2024-03-07T09:12:04;57.10;;;40.57;;
18228;SDS011;9239;50.932;3.142;2024-03-07T09:14:32;55.57;;;38.40;;
18228;SDS011;9239;50.932;3.142;2024-03-07T09:17:00;55.10;;;36.03;;
18228;SDS011;9239;50.932;3.142;2024-03-07T09:19:27;60.77;;;36.73;;
18228;SDS011;9239;50.932;3.142;2024-03-07T09:21:54;55.87;;;37.10;;
18228;SDS011;9239;50.932;3.142;2024-03-07T09:24:21;57.03;;;37.43;;
18228;SDS011;9239;50.932;3.142;2024-03-07T09:26:48;55.50;;;37.93;;
18228;SDS011;9239;50.932;3.142;2024-03-07T09:29:16;49.60;;;36.37;;
18228;SDS011;9239;50.932;3.142;2024-03-07T09:31:45;52.00;;;36.00;;
18228;SDS011;9239;50.932;3.142;2024-03-07T09:34:13;56.37;;;35.97;;
18228;SDS011;9239;50.932;3.142;2024-03-07T09:36:40;49.97;;;35.30;;
18228;SDS011;9239;50.932;3.142;2024-03-07T09:39:07;54.63;;;34.83;;
18228;SDS011;9239;50.932;3.142;2024-03-07T09:41:34;54.17;;;35.73;;
18228;SDS011;9239;50.932;3.142;2024-03-07T09:44:02;51.43;;;34.17;;
18228;SDS011;9239;50.932;3.142;2024-03-07T09:46:31;52.07;;;35.60;;
18228;SDS011;9239;50.932;3.142;2024-03-07T09:48:59;51.77;;;35.20;;
18228;SDS011;9239;50.932;3.142;2024-03-07T09:51:27;54.83;;;34.40;;
18228;SDS011;9239;50.932;3.142;2024-03-07T09:53:56;56.63;;;36.13;;
18228;SDS011;9239;50.932;3.142;2024-03-07T09:56:24;51.43;;;34.10;;
18228;SDS011;9239;50.932;3.142;2024-03-07T09:58:53;51.33;;;34.93;;
18228;SDS011;9239;50.932;3.142;2024-03-07T10:01:25;49.83;;;34.67;;
18228;SDS011;9239;50.932;3.142;2024-03-07T10:03:52;48.93;;;32.30;;
18228;SDS011;9239;50.932;3.142;2024-03-07T10:06:30;55.97;;;33.60;;
18228;SDS011;9239;50.932;3.142;2024-03-07T10:08:58;47.47;;;32.63;;
18228;SDS011;9239;50.932;3.142;2024-03-07T10:11:26;46.20;;;32.43;;
18228;SDS011;9239;50.932;3.142;2024-03-07T10:13:53;50.13;;;36.47;;
18228;SDS011;9239;50.932;3.142;2024-03-07T10:16:20;49.33;;;32.60;;
18228;SDS011;9239;50.932;3.142;2024-03-07T10:18:48;49.47;;;31.20;;
18228;SDS011;9239;50.932;3.142;2024-03-07T10:21:18;48.60;;;33.50;;
18228;SDS011;9239;50.932;3.142;2024-03-07T10:23:45;49.93;;;30.83;;
18228;SDS011;9239;50.932;3.142;2024-03-07T10:26:12;46.93;;;30.53;;
18228;SDS011;9239;50.932;3.142;2024-03-07T10:28:40;39.83;;;29.37;;
18228;SDS011;9239;50.932;3.142;2024-03-07T10:31:06;43.43;;;31.23;;
18228;SDS011;9239;50.932;3.142;2024-03-07T10:33:36;44.47;;;30.37;;
18228;SDS011;9239;50.932;3.142;2024-03-07T10:36:04;44.27;;;29.73;;
18228;SDS011;9239;50.932;3.142;2024-03-07T10:38:36;40.03;;;27.30;;
18228;SDS011;9239;50.932;3.142;2024-03-07T10:41:04;45.47;;;29.03;;
18228;SDS011;9239;50.932;3.142;2024-03-07T10:43:34;40.47;;;29.13;;
18228;SDS011;9239;50.932;3.142;2024-03-07T10:46:07;43.50;;;30.77;;
18228;SDS011;9239;50.932;3.142;2024-03-07T10:48:38;45.30;;;31.10;;
18228;SDS011;9239;50.932;3.142;2024-03-07T10:51:06;40.93;;;29.87;;
18228;SDS011;9239;50.932;3.142;2024-03-07T10:53:49;42.10;;;29.47;;
18228;SDS011;9239;50.932;3.142;2024-03-07T10:56:29;40.37;;;28.80;;
18228;SDS011;9239;50.932;3.142;2024-03-07T10:59:11;43.53;;;30.17;;
18228;SDS011;9239;50.932;3.142;2024-03-07T11:01:45;43.13;;;28.97;;
18228;SDS011;9239;50.932;3.142;2024-03-07T11:04:16;42.23;;;27.73;;
18228;SDS011;9239;50.932;3.142;2024-03-07T11:06:47;39.23;;;27.60;;
18228;SDS011;9239;50.932;3.142;2024-03-07T11:09:16;44.20;;;28.27;;
18228;SDS011;9239;50.932;3.142;2024-03-07T11:11:49;40.97;;;28.43;;
18228;SDS011;9239;50.932;3.142;2024-03-07T11:14:16;38.90;;;28.07;;
18228;SDS011;9239;50.932;3.142;2024-03-07T11:16:44;42.03;;;30.23;;
18228;SDS011;9239;50.932;3.142;2024-03-07T11:19:19;48.43;;;30.27;;
18228;SDS011;9239;50.932;3.142;2024-03-07T11:22:01;45.27;;;29.73;;
18228;SDS011;9239;50.932;3.142;2024-03-07T11:24:40;41.93;;;28.63;;
18228;SDS011;9239;50.932;3.142;2024-03-07T11:27:08;38.57;;;26.97;;
18228;SDS011;9239;50.932;3.142;2024-03-07T11:29:43;38.00;;;26.83;;
18228;SDS011;9239;50.932;3.142;2024-03-07T11:32:17;40.10;;;27.57;;
18228;SDS011;9239;50.932;3.142;2024-03-07T11:34:46;40.40;;;27.77;;
18228;SDS011;9239;50.932;3.142;2024-03-07T11:37:16;38.13;;;27.13;;
18228;SDS011;9239;50.932;3.142;2024-03-07T11:39:49;37.57;;;26.43;;
18228;SDS011;9239;50.932;3.142;2024-03-07T11:42:25;40.13;;;27.77;;
18228;SDS011;9239;50.932;3.142;2024-03-07T11:44:53;36.13;;;27.13;;
18228;SDS011;9239;50.932;3.142;2024-03-07T11:47:22;36.30;;;26.03;;
18228;SDS011;9239;50.932;3.142;2024-03-07T11:49:49;38.60;;;27.17;;
18228;SDS011;9239;50.932;3.142;2024-03-07T11:52:18;37.03;;;27.63;;
18228;SDS011;9239;50.932;3.142;2024-03-07T11:54:46;35.80;;;26.87;;
18228;SDS011;9239;50.932;3.142;2024-03-07T11:57:16;33.90;;;25.57;;
18228;SDS011;9239;50.932;3.142;2024-03-07T11:59:44;38.37;;;26.90;;
18228;SDS011;9239;50.932;3.142;2024-03-07T12:02:17;36.70;;;27.30;;
18228;SDS011;9239;50.932;3.142;2024-03-07T12:04:46;36.40;;;26.70;;
18228;SDS011;9239;50.932;3.142;2024-03-07T12:07:13;33.63;;;26.17;;
18228;SDS011;9239;50.932;3.142;2024-03-07T12:09:42;35.60;;;26.67;;
18228;SDS011;9239;50.932;3.142;2024-03-07T12:12:16;34.77;;;26.97;;
18228;SDS011;9239;50.932;3.142;2024-03-07T12:14:46;34.23;;;27.70;;
18228;SDS011;9239;50.932;3.142;2024-03-07T12:17:13;37.80;;;26.37;;
18228;SDS011;9239;50.932;3.142;2024-03-07T12:19:41;42.83;;;29.30;;
18228;SDS011;9239;50.932;3.142;2024-03-07T12:22:09;35.23;;;25.87;;
18228;SDS011;9239;50.932;3.142;2024-03-07T12:24:38;34.27;;;27.00;;
18228;SDS011;9239;50.932;3.142;2024-03-07T12:27:08;38.37;;;26.07;;
18228;SDS011;9239;50.932;3.142;2024-03-07T12:29:38;32.13;;;25.17;;
18228;SDS011;9239;50.932;3.142;2024-03-07T12:32:07;35.27;;;26.73;;
18228;SDS011;9239;50.932;3.142;2024-03-07T12:34:36;33.57;;;26.00;;
18228;SDS011;9239;50.932;3.142;2024-03-07T12:37:06;34.63;;;27.17;;
18228;SDS011;9239;50.932;3.142;2024-03-07T12:39:33;35.20;;;26.07;;
18228;SDS011;9239;50.932;3.142;2024-03-07T12:42:04;35.37;;;27.77;;
18228;SDS011;9239;50.932;3.142;2024-03-07T12:44:42;30.87;;;25.67;;
18228;SDS011;9239;50.932;3.142;2024-03-07T12:47:11;28.47;;;24.57;;
18228;SDS011;9239;50.932;3.142;2024-03-07T12:49:39;35.20;;;26.30;;
18228;SDS011;9239;50.932;3.142;2024-03-07T12:52:06;33.37;;;25.33;;
18228;SDS011;9239;50.932;3.142;2024-03-07T12:54:34;31.73;;;25.43;;
18228;SDS011;9239;50.932;3.142;2024-03-07T12:57:02;34.17;;;26.50;;
18228;SDS011;9239;50.932;3.142;2024-03-07T12:59:30;33.80;;;26.27;;
18228;SDS011;9239;50.932;3.142;2024-03-07T13:01:59;31.93;;;24.97;;
18228;SDS011;9239;50.932;3.142;2024-03-07T13:04:26;33.63;;;25.80;;
18228;SDS011;9239;50.932;3.142;2024-03-07T13:06:53;34.93;;;25.10;;
18228;SDS011;9239;50.932;3.142;2024-03-07T13:09:24;33.23;;;25.37;;
18228;SDS011;9239;50.932;3.142;2024-03-07T13:11:53;39.17;;;29.07;;
18228;SDS011;9239;50.932;3.142;2024-03-07T13:14:20;36.73;;;26.67;;
18228;SDS011;9239;50.932;3.142;2024-03-07T13:16:47;35.67;;;27.27;;
18228;SDS011;9239;50.932;3.142;2024-03-07T13:19:16;30.63;;;25.00;;
18228;SDS011;9239;50.932;3.142;2024-03-07T13:21:46;32.23;;;25.53;;
18228;SDS011;9239;50.932;3.142;2024-03-07T13:24:14;31.47;;;25.40;;
18228;SDS011;9239;50.932;3.142;2024-03-07T13:26:42;31.93;;;24.50;;
18228;SDS011;9239;50.932;3.142;2024-03-07T13:29:09;32.42;;;24.83;;
18228;SDS011;9239;50.932;3.142;2024-03-07T13:31:37;29.85;;;24.25;;
18228;SDS011;9239;50.932;3.142;2024-03-07T13:34:07;32.35;;;25.02;;
18228;SDS011;9239;50.932;3.142;2024-03-07T13:36:39;28.63;;;23.25;;
18228;SDS011;9239;50.932;3.142;2024-03-07T13:39:07;33.90;;;25.05;;
18228;SDS011;9239;50.932;3.142;2024-03-07T13:41:36;28.58;;;22.98;;
18228;SDS011;9239;50.932;3.142;2024-03-07T13:44:03;32.20;;;22.83;;
18228;SDS011;9239;50.932;3.142;2024-03-07T13:46:30;27.85;;;22.13;;
18228;SDS011;9239;50.932;3.142;2024-03-07T13:48:59;29.42;;;21.73;;
18228;SDS011;9239;50.932;3.142;2024-03-07T13:51:32;25.73;;;21.23;;
18228;SDS011;9239;50.932;3.142;2024-03-07T13:54:02;29.85;;;22.10;;
18228;SDS011;9239;50.932;3.142;2024-03-07T13:56:52;27.63;;;22.63;;
18228;SDS011;9239;50.932;3.142;2024-03-07T13:59:40;30.02;;;21.83;;
18228;SDS011;9239;50.932;3.142;2024-03-07T14:02:34;23.88;;;21.30;;
18228;SDS011;9239;50.932;3.142;2024-03-07T14:05:34;27.98;;;22.25;;
18228;SDS011;9239;50.932;3.142;2024-03-07T14:08:23;25.30;;;20.93;;
18228;SDS011;9239;50.932;3.142;2024-03-07T14:14:41;28.27;;;20.40;;
18228;SDS011;9239;50.932;3.142;2024-03-07T14:17:30;23.80;;;20.33;;
18228;SDS011;9239;50.932;3.142;2024-03-07T14:23:25;25.10;;;20.13;;
18228;SDS011;9239;50.932;3.142;2024-03-07T14:26:16;25.23;;;18.83;;
18228;SDS011;9239;50.932;3.142;2024-03-07T14:29:20;23.93;;;18.70;;
18228;SDS011;9239;50.932;3.142;2024-03-07T14:31:59;23.63;;;20.33;;
18228;SDS011;9239;50.932;3.142;2024-03-07T14:34:29;24.13;;;19.97;;
18228;SDS011;9239;50.932;3.142;2024-03-07T14:37:11;24.30;;;20.43;;
18228;SDS011;9239;50.932;3.142;2024-03-07T14:39:48;20.58;;;17.95;;
18228;SDS011;9239;50.932;3.142;2024-03-07T14:42:18;22.90;;;19.47;;
18228;SDS011;9239;50.932;3.142;2024-03-07T14:44:45;25.15;;;21.02;;
18228;SDS011;9239;50.932;3.142;2024-03-07T14:47:16;24.45;;;20.90;;
18228;SDS011;9239;50.932;3.142;2024-03-07T14:49:46;25.70;;;21.17;;